createdAt,value
2023-01-21T00:00:32.105Z,99378.88
2023-01-21T00:03:17.361Z,99378.88
2023-01-21T00:06:02.990Z,99388.41
2023-01-21T00:08:48.576Z,99391.97
2023-01-21T00:11:33.840Z,99386.06
2023-01-21T00:14:19.130Z,99384.91
2023-01-21T00:17:04.519Z,99384.53
2023-01-21T00:28:15.416Z,99394.84
2023-01-21T00:31:02.433Z,99393.28
2023-01-21T00:33:47.654Z,99388.91
2023-01-21T00:36:32.167Z,99395.63
2023-01-21T00:39:16.837Z,99390.50
2023-01-21T00:42:03.743Z,99391.69
2023-01-21T00:44:48.649Z,99394.09
2023-01-21T00:55:39.120Z,99401.34
2023-01-21T00:58:23.782Z,99407.69
2023-01-21T01:01:11.212Z,99408.13
2023-01-21T01:03:56.408Z,99408.94
2023-01-21T01:06:41.928Z,99410.16
2023-01-21T01:09:27.162Z,99411.72
2023-01-21T01:12:12.462Z,99417.66
2023-01-21T01:14:59.553Z,99416.09
2023-01-21T01:17:45.891Z,99423.22
2023-01-21T01:20:31.256Z,99419.66
2023-01-21T01:23:16.488Z,99410.56
2023-01-21T01:26:04.716Z,99414.09
2023-01-21T01:28:50.233Z,99425.22
2023-01-21T01:31:35.720Z,99417.31
2023-01-21T01:34:20.923Z,99420.44
2023-01-21T01:37:06.385Z,99424.44
2023-01-21T01:39:51.540Z,99412.13
2023-01-21T01:42:36.836Z,99417.66
2023-01-21T01:45:22.027Z,99421.66
2023-01-21T01:48:10.139Z,99416.09
2023-01-21T01:51:00.770Z,99414.16
2023-01-21T01:53:47.215Z,99428.81
2023-01-21T01:56:32.567Z,99423.28
2023-01-21T01:59:19.285Z,99431.25
2023-01-21T02:02:08.359Z,99426.91
2023-01-21T02:04:58.087Z,99438.00
2023-01-21T02:07:45.593Z,99427.69
2023-01-21T02:10:31.888Z,99441.56
2023-01-21T02:13:17.749Z,99442.34
2023-01-21T02:16:18.399Z,99444.34
2023-01-21T02:19:42.216Z,99444.75
2023-01-21T02:22:39.852Z,99436.41
2023-01-21T02:26:03.079Z,99443.19
2023-01-21T02:37:40.651Z,99452.25
2023-01-21T02:40:32.652Z,99458.97
2023-01-21T02:43:38.902Z,99451.47
2023-01-21T02:46:29.605Z,99462.56
2023-01-21T02:49:41.508Z,99461.75
2023-01-21T02:52:27.495Z,99464.16
2023-01-21T03:03:55.397Z,99470.53
2023-01-21T03:06:55.560Z,99459.84
2023-01-21T03:09:40.429Z,99457.88
2023-01-21T03:12:37.450Z,99469.34
2023-01-21T03:15:49.407Z,99466.59
2023-01-21T03:18:42.937Z,99477.69
2023-01-21T03:26:57.106Z,99473.31
2023-01-21T03:29:45.191Z,99467.38
2023-01-21T03:32:33.616Z,99478.84
2023-01-21T03:35:42.289Z,99476.88
2023-01-21T03:38:31.610Z,99479.63
2023-01-21T03:41:22.634Z,99478.41
2023-01-21T03:44:07.374Z,99480.81
2023-01-21T03:53:07.711Z,99486.00
2023-01-21T03:55:53.085Z,99489.97
2023-01-21T03:58:38.736Z,99489.56
2023-01-21T04:01:24.159Z,99488.00
2023-01-21T04:04:10.112Z,99490.78
2023-01-21T04:06:55.618Z,99491.97
2023-01-21T04:09:41.106Z,99493.97
2023-01-21T04:12:26.295Z,99493.97
2023-01-21T04:15:11.986Z,99494.34
2023-01-21T04:17:57.395Z,99500.69
2023-01-21T04:20:42.626Z,99501.47
2023-01-21T04:23:27.945Z,99501.47
2023-01-21T04:26:13.235Z,99501.47
2023-01-21T04:28:58.743Z,99508.22
2023-01-21T04:31:44.721Z,99510.22
2023-01-21T04:34:30.337Z,99509.78
2023-01-21T04:37:15.644Z,99504.66
2023-01-21T04:40:00.897Z,99512.16
2023-01-21T04:42:46.270Z,99510.16
2023-01-21T04:45:31.584Z,99506.97
2023-01-21T04:48:17.657Z,99501.84
2023-01-21T04:51:03.748Z,99509.38
2023-01-21T04:53:48.918Z,99502.25
2023-01-21T04:56:34.205Z,99507.81
2023-01-21T04:59:19.436Z,99510.59
2023-01-21T05:02:04.803Z,99507.84
2023-01-21T05:04:50.082Z,99522.91
2023-01-21T05:07:35.429Z,99527.25
2023-01-21T05:10:20.601Z,99529.63
2023-01-21T08:17:27.294Z,99586.78
2023-01-21T08:20:13.355Z,99583.16
2023-01-21T08:23:01.985Z,99587.19
2023-01-21T08:25:47.176Z,99582.00
2023-01-21T08:28:34.154Z,99577.63
2023-01-21T09:31:36.762Z,99594.31
2023-01-21T09:39:58.561Z,99596.78
2023-01-21T09:42:44.035Z,99592.06
2023-01-21T09:45:29.681Z,99601.59
2023-01-21T09:48:25.919Z,99597.63
2023-01-21T09:51:25.955Z,99593.72
2023-01-21T09:54:27.284Z,99594.53
2023-01-21T10:03:04.595Z,99592.94
2023-01-21T10:05:53.121Z,99585.00
2023-01-21T10:09:01.861Z,99585.84
2023-01-21T10:11:59.362Z,99592.94
2023-01-21T10:15:06.929Z,99591.75
2023-01-21T10:18:30.414Z,99590.16
2023-01-21T10:21:22.080Z,99579.03
2023-01-21T10:24:19.131Z,99579.81
2023-01-21T10:27:05.308Z,99580.19
2023-01-21T10:29:58.449Z,99573.47
2023-01-21T10:32:45.349Z,99578.66
2023-01-21T10:35:42.147Z,99571.97
2023-01-21T10:38:44.238Z,99566.84
2023-01-21T10:41:36.194Z,99570.78
2023-01-21T10:44:37.851Z,99561.22
2023-01-21T10:47:34.801Z,99565.56
2023-01-21T10:50:44.552Z,99559.59
2023-01-21T10:53:41.599Z,99558.38
2023-01-21T10:56:51.976Z,99556.81
2023-01-21T10:59:40.246Z,99550.03
2023-01-21T11:02:32.474Z,99554.34
2023-01-21T11:05:19.090Z,99554.72
2023-01-21T11:08:04.799Z,99553.88
2023-01-21T11:10:55.320Z,99551.44
2023-01-21T11:13:41.689Z,99552.22
2023-01-21T11:16:39.273Z,99548.22
2023-01-21T11:19:32.697Z,99535.09
2023-01-21T11:22:18.439Z,99532.28
2023-01-21T11:25:24.900Z,99541.00
2023-01-21T11:28:26.392Z,99533.03
2023-01-21T11:31:27.438Z,99533.81
2023-01-21T11:34:23.717Z,99531.41
2023-01-21T11:37:22.054Z,99526.63
2023-01-21T11:40:20.783Z,99527.41
2023-01-21T11:43:46.690Z,99507.19
2023-01-21T11:46:41.509Z,99501.63
2023-01-21T11:49:30.244Z,99503.22
2023-01-21T11:52:19.219Z,99495.22
2023-01-21T11:57:57.093Z,99490.16
2023-01-21T12:00:46.907Z,99489.78
2023-01-21T12:03:54.320Z,99495.31
2023-01-21T12:06:48.347Z,99491.00
2023-01-21T12:09:34.438Z,99487.44
2023-01-21T12:12:27.037Z,99484.28
2023-01-21T12:15:17.519Z,99477.09
2023-01-21T12:18:18.559Z,99475.84
2023-01-21T12:21:20.416Z,99478.22
2023-01-21T12:24:17.441Z,99486.06
2023-01-21T12:27:09.501Z,99473.81
2023-01-21T12:30:35.321Z,99480.53
2023-01-21T12:33:30.713Z,99482.88
2023-01-21T12:36:32.438Z,99470.19
2023-01-21T12:39:25.007Z,99480.13
2023-01-21T12:42:29.423Z,99471.81
2023-01-21T12:45:21.192Z,99463.00
2023-01-21T12:48:37.512Z,99463.44
2023-01-21T12:51:33.069Z,99459.84
2023-01-21T12:54:21.594Z,99464.63
2023-01-21T12:57:34.762Z,99455.94
2023-01-21T13:00:25.410Z,99446.44
2023-01-21T13:03:19.783Z,99446.91
2023-01-21T13:06:23.951Z,99438.25
2023-01-21T13:09:38.831Z,99443.44
2023-01-21T13:12:30.603Z,99437.09
2023-01-21T13:15:21.503Z,99434.31
2023-01-21T13:18:16.807Z,99423.53
2023-01-21T13:21:28.842Z,99424.31
2023-01-21T13:24:22.854Z,99416.34
2023-01-21T13:27:17.792Z,99415.13
2023-01-21T13:30:18.048Z,99409.94
2023-01-21T13:33:06.881Z,99391.66
2023-01-21T13:36:30.256Z,99387.69
2023-01-21T13:40:08.225Z,99382.91
2023-01-21T13:43:14.239Z,99388.34
2023-01-21T13:46:02.982Z,99389.09
2023-01-21T13:49:16.630Z,99388.31
2023-01-21T13:52:36.556Z,99384.31
2023-01-21T13:55:32.688Z,99383.53
2023-01-21T13:58:52.511Z,99387.88
2023-01-21T14:01:46.847Z,99389.88
2023-01-21T14:04:48.155Z,99375.97
2023-01-21T14:07:40.968Z,99381.13
2023-01-21T14:10:49.749Z,99376.69
2023-01-21T14:14:00.257Z,99369.22
2023-01-21T14:16:57.243Z,99378.38
2023-01-21T14:20:16.691Z,99357.72
2023-01-21T14:23:33.876Z,99347.81
2023-01-21T14:26:40.316Z,99344.63
2023-01-21T14:29:33.461Z,99344.56
2023-01-21T14:32:32.649Z,99349.31
2023-01-21T14:35:37.242Z,99343.75
2023-01-21T14:39:04.277Z,99344.91
2023-01-21T14:42:14.800Z,99349.22
2023-01-21T14:45:08.122Z,99346.00
2023-01-21T14:47:55.298Z,99345.56
2023-01-21T14:50:51.067Z,99335.28
2023-01-21T14:59:41.151Z,99334.00
2023-01-21T15:02:33.506Z,99334.78
2023-01-21T15:05:50.206Z,99336.44
2023-01-21T15:08:46.160Z,99324.94
2023-01-21T15:11:39.561Z,99326.94
2023-01-21T15:14:29.188Z,99317.44
2023-01-21T15:17:51.918Z,99320.59
2023-01-21T15:21:00.770Z,99330.13
2023-01-21T15:23:50.131Z,99322.13
2023-01-21T15:26:36.623Z,99328.09
2023-01-21T15:29:34.005Z,99326.16
2023-01-21T15:32:31.710Z,99326.94
2023-01-21T15:35:35.533Z,99329.31
2023-01-21T15:38:21.015Z,99320.63
2023-01-21T15:41:22.399Z,99310.31
2023-01-21T15:44:36.097Z,99323.34
2023-01-21T15:47:39.687Z,99320.34
2023-01-21T15:50:32.022Z,99324.22
2023-01-21T15:53:39.175Z,99324.16
2023-01-21T15:56:54.109Z,99315.03
2023-01-21T16:00:08.079Z,99322.53
2023-01-21T16:03:21.866Z,99325.66
2023-01-21T16:06:22.459Z,99320.47
2023-01-21T16:09:10.982Z,99318.84
2023-01-21T16:12:11.248Z,99317.25
2023-01-21T16:15:17.480Z,99315.69
2023-01-21T18:27:02.224Z,99326.41
2023-01-21T18:29:48.085Z,99329.19
2023-01-21T18:32:33.742Z,99333.97
2023-01-21T18:35:22.692Z,99341.09
2023-01-21T18:38:19.242Z,99345.09
2023-01-21T18:41:05.782Z,99341.88
2023-01-21T18:43:51.491Z,99344.63
2023-01-21T18:46:43.932Z,99342.72
2023-01-21T18:49:29.408Z,99341.16
2023-01-21T18:52:16.684Z,99347.91
2023-01-21T18:55:02.565Z,99330.94
2023-01-21T18:57:50.290Z,99335.28
2023-01-21T19:00:35.920Z,99335.34
2023-01-21T19:03:23.187Z,99332.13
2023-01-21T19:06:14.345Z,99342.88
2023-01-21T19:08:59.829Z,99338.94
2023-01-21T19:11:45.080Z,99337.38
2023-01-21T19:14:30.470Z,99341.34
2023-01-21T19:17:33.027Z,99344.97
2023-01-21T19:20:21.050Z,99341.06
2023-01-21T19:23:15.192Z,99335.56
2023-01-21T19:26:01.118Z,99341.09
2023-01-21T19:28:46.543Z,99340.31
2023-01-21T19:31:32.746Z,99345.56
2023-01-21T19:34:18.649Z,99341.97
2023-01-21T19:37:04.760Z,99340.75
2023-01-21T19:39:50.330Z,99344.28
2023-01-21T19:42:35.477Z,99351.03
2023-01-21T19:45:21.069Z,99358.16
2023-01-21T19:48:12.803Z,99349.81
2023-01-21T19:50:58.162Z,99356.09
2023-01-21T19:53:43.356Z,99361.25
2023-01-21T19:56:28.737Z,99367.16
2023-01-21T19:59:15.736Z,99371.50
2023-01-21T20:02:02.720Z,99373.88
2023-01-21T20:04:47.985Z,99384.94
2023-01-21T20:07:33.947Z,99388.50
2023-01-21T20:10:25.500Z,99384.13
2023-01-21T20:13:12.264Z,99383.69
2023-01-21T20:16:02.644Z,99390.09
2023-01-21T20:18:49.792Z,99395.31
2023-01-21T20:21:38.010Z,99405.28
2023-01-21T20:24:26.879Z,99404.19
2023-01-21T20:27:14.505Z,99411.44
2023-01-21T20:30:15.962Z,99417.81
2023-01-21T20:33:01.816Z,99413.13
2023-01-21T20:35:55.827Z,99415.19
2023-01-21T20:38:42.166Z,99418.03
2023-01-21T20:41:27.851Z,99417.28
2023-01-21T20:44:13.273Z,99422.91
2023-01-21T20:47:00.685Z,99418.94
2023-01-21T20:49:45.980Z,99424.56
2023-01-21T20:52:31.203Z,99423.03
2023-01-21T20:55:20.821Z,99425.44
2023-01-21T20:58:07.310Z,99431.03
2023-01-21T21:00:52.861Z,99431.84
2023-01-21T21:03:38.409Z,99434.25
2023-01-21T21:06:27.969Z,99435.03
2023-01-21T21:09:13.337Z,99432.66
2023-01-21T21:11:58.710Z,99440.59
2023-01-21T21:14:43.886Z,99450.94
2023-01-21T21:17:29.175Z,99449.78
2023-01-21T21:20:21.375Z,99461.28
2023-01-21T21:23:07.745Z,99461.34
2023-01-21T21:25:53.429Z,99463.31
2023-01-21T21:28:38.921Z,99455.03
2023-01-21T21:31:26.371Z,99458.59
2023-01-21T21:34:12.077Z,99455.84
2023-01-21T21:36:57.362Z,99458.25
2023-01-21T21:39:42.451Z,99455.09
2023-01-21T21:42:46.484Z,99465.84
2023-01-21T21:45:32.209Z,99462.69
2023-01-21T21:48:39.383Z,99469.03
2023-01-21T21:51:25.041Z,99467.09
2023-01-21T21:54:12.992Z,99470.28
2023-01-21T21:56:58.597Z,99473.50
2023-01-21T21:59:43.839Z,99476.66
2023-01-21T22:02:29.242Z,99474.72
2023-01-21T22:05:14.376Z,99475.13
2023-01-21T22:07:59.676Z,99477.53
2023-01-21T22:10:45.742Z,99470.75
2023-01-21T22:13:34.138Z,99475.53
2023-01-21T22:16:23.759Z,99476.31
2023-01-21T22:19:09.288Z,99471.97
2023-01-21T22:21:54.428Z,99479.09
2023-01-21T22:24:39.812Z,99479.09
2023-01-21T22:27:24.939Z,99480.31
2023-01-21T22:30:10.986Z,99488.63
2023-01-21T22:32:56.829Z,99488.25
2023-01-21T22:35:42.388Z,99491.03
2023-01-21T22:38:27.745Z,99491.81
2023-01-21T22:41:15.481Z,99495.78
2023-01-21T22:44:00.644Z,99496.56
2023-01-21T22:46:46.057Z,99496.97
2023-01-21T22:49:31.202Z,99500.19
2023-01-21T22:52:16.484Z,99497.41
2023-01-21T22:55:01.597Z,99509.69
2023-01-21T22:57:46.892Z,99496.25
2023-01-21T23:00:36.859Z,99506.16
2023-01-21T23:03:22.969Z,99505.38
2023-01-21T23:06:08.716Z,99498.66
2023-01-21T23:08:54.477Z,99506.19
2023-01-21T23:11:41.516Z,99501.06
2023-01-21T23:14:26.843Z,99510.59
2023-01-21T23:17:13.555Z,99505.44
2023-01-21T23:19:59.070Z,99520.94
2023-01-21T23:22:44.410Z,99515.78
2023-01-21T23:25:29.691Z,99517.78
2023-01-21T23:28:15.765Z,99517.38
2023-01-21T23:31:05.500Z,99520.16
2023-01-21T23:33:52.578Z,99519.34
2023-01-21T23:36:37.856Z,99508.63
2023-01-21T23:39:23.498Z,99514.16
2023-01-21T23:42:08.913Z,99519.72
2023-01-21T23:44:54.086Z,99522.47
2023-01-21T23:47:39.350Z,99519.72
2023-01-21T23:50:24.783Z,99523.69
2023-01-21T23:53:10.067Z,99510.22
2023-01-21T23:56:03.695Z,99517.38
2023-01-21T23:58:49.716Z,99526.09
